sensor_id;sensor_type;location;lat;lon;timestamp;temperature;humidity
37518;DHT22;23366;52.498;13.446;2023-06-19T00:00:15;19.50;99.90
37518;DHT22;23366;52.498;13.446;2023-06-19T00:02:42;19.50;99.90
37518;DHT22;23366;52.498;13.446;2023-06-19T00:05:09;19.60;99.90
37518;DHT22;23366;52.498;13.446;2023-06-19T00:07:36;19.50;99.90
37518;DHT22;23366;52.498;13.446;2023-06-19T00:10:02;19.60;99.90
37518;DHT22;23366;52.498;13.446;2023-06-19T00:12:28;19.50;99.90
37518;DHT22;23366;52.498;13.446;2023-06-19T00:14:53;19.50;99.90
37518;DHT22;23366;52.498;13.446;2023-06-19T00:17:19;19.50;99.90
37518;DHT22;23366;52.498;13.446;2023-06-19T00:19:44;19.50;99.90
37518;DHT22;23366;52.498;13.446;2023-06-19T00:22:10;19.50;99.90
37518;DHT22;23366;52.498;13.446;2023-06-19T00:24:35;19.50;99.90
37518;DHT22;23366;52.498;13.446;2023-06-19T00:27:01;19.50;99.90
37518;DHT22;23366;52.498;13.446;2023-06-19T00:29:32;19.40;99.90
37518;DHT22;23366;52.498;13.446;2023-06-19T00:31:59;19.40;99.90
37518;DHT22;23366;52.498;13.446;2023-06-19T00:34:24;19.40;99.90
37518;DHT22;23366;52.498;13.446;2023-06-19T00:36:51;19.30;99.90
37518;DHT22;23366;52.498;13.446;2023-06-19T00:39:17;19.30;99.90
37518;DHT22;23366;52.498;13.446;2023-06-19T00:41:43;19.30;99.90
37518;DHT22;23366;52.498;13.446;2023-06-19T00:44:09;19.30;99.90
37518;DHT22;23366;52.498;13.446;2023-06-19T00:46:37;19.30;99.90
37518;DHT22;23366;52.498;13.446;2023-06-19T00:49:05;19.40;99.90
37518;DHT22;23366;52.498;13.446;2023-06-19T00:51:31;19.40;99.90
37518;DHT22;23366;52.498;13.446;2023-06-19T00:53:57;19.40;99.90
37518;DHT22;23366;52.498;13.446;2023-06-19T00:56:22;19.40;99.90
37518;DHT22;23366;52.498;13.446;2023-06-19T00:58:48;19.40;99.90
37518;DHT22;23366;52.498;13.446;2023-06-19T01:01:13;19.40;99.90
37518;DHT22;23366;52.498;13.446;2023-06-19T01:03:39;19.40;99.90
37518;DHT22;23366;52.498;13.446;2023-06-19T01:06:13;19.40;99.90
37518;DHT22;23366;52.498;13.446;2023-06-19T01:11:18;19.40;99.90
37518;DHT22;23366;52.498;13.446;2023-06-19T01:13:48;19.40;99.90
37518;DHT22;23366;52.498;13.446;2023-06-19T01:16:14;19.40;99.90
37518;DHT22;23366;52.498;13.446;2023-06-19T01:18:42;19.30;99.90
37518;DHT22;23366;52.498;13.446;2023-06-19T01:21:18;19.30;99.90
37518;DHT22;23366;52.498;13.446;2023-06-19T01:23:44;19.30;99.90
37518;DHT22;23366;52.498;13.446;2023-06-19T01:26:11;19.30;99.90
37518;DHT22;23366;52.498;13.446;2023-06-19T01:28:38;19.20;99.90
37518;DHT22;23366;52.498;13.446;2023-06-19T01:31:13;19.20;99.90
37518;DHT22;23366;52.498;13.446;2023-06-19T01:33:43;19.10;99.90
37518;DHT22;23366;52.498;13.446;2023-06-19T01:36:10;19.10;99.90
37518;DHT22;23366;52.498;13.446;2023-06-19T01:38:37;19.10;99.90
37518;DHT22;23366;52.498;13.446;2023-06-19T01:41:04;19.10;99.90
37518;DHT22;23366;52.498;13.446;2023-06-19T01:43:31;19.10;99.90
37518;DHT22;23366;52.498;13.446;2023-06-19T01:45:58;19.00;99.90
37518;DHT22;23366;52.498;13.446;2023-06-19T01:48:24;19.00;99.90
37518;DHT22;23366;52.498;13.446;2023-06-19T01:50:50;19.00;99.90
37518;DHT22;23366;52.498;13.446;2023-06-19T01:53:16;19.00;99.90
37518;DHT22;23366;52.498;13.446;2023-06-19T01:55:41;18.90;99.90
37518;DHT22;23366;52.498;13.446;2023-06-19T01:58:07;19.00;99.90
37518;DHT22;23366;52.498;13.446;2023-06-19T02:00:33;18.90;99.90
37518;DHT22;23366;52.498;13.446;2023-06-19T02:03:01;19.00;99.90
37518;DHT22;23366;52.498;13.446;2023-06-19T02:05:26;18.90;99.90
37518;DHT22;23366;52.498;13.446;2023-06-19T02:07:52;18.90;99.90
37518;DHT22;23366;52.498;13.446;2023-06-19T02:10:17;19.00;99.90
37518;DHT22;23366;52.498;13.446;2023-06-19T02:12:43;19.00;99.90
37518;DHT22;23366;52.498;13.446;2023-06-19T02:15:08;19.00;99.90
37518;DHT22;23366;52.498;13.446;2023-06-19T02:17:34;19.00;99.90
37518;DHT22;23366;52.498;13.446;2023-06-19T02:20:00;19.00;99.90
37518;DHT22;23366;52.498;13.446;2023-06-19T02:22:25;19.00;99.90
37518;DHT22;23366;52.498;13.446;2023-06-19T02:24:50;19.00;99.90
37518;DHT22;23366;52.498;13.446;2023-06-19T02:27:16;19.00;99.90
37518;DHT22;23366;52.498;13.446;2023-06-19T02:29:41;19.00;99.90
37518;DHT22;23366;52.498;13.446;2023-06-19T02:32:07;19.00;99.90
37518;DHT22;23366;52.498;13.446;2023-06-19T02:34:33;19.00;99.90
37518;DHT22;23366;52.498;13.446;2023-06-19T02:36:59;19.00;99.90
37518;DHT22;23366;52.498;13.446;2023-06-19T02:39:24;18.90;99.90
37518;DHT22;23366;52.498;13.446;2023-06-19T02:41:50;18.90;99.90
37518;DHT22;23366;52.498;13.446;2023-06-19T02:44:15;18.90;99.90
37518;DHT22;23366;52.498;13.446;2023-06-19T02:46:41;18.90;99.90
37518;DHT22;23366;52.498;13.446;2023-06-19T02:49:06;19.00;99.90
37518;DHT22;23366;52.498;13.446;2023-06-19T02:51:32;18.90;99.90
37518;DHT22;23366;52.498;13.446;2023-06-19T02:53:57;19.00;99.90
37518;DHT22;23366;52.498;13.446;2023-06-19T02:56:24;19.00;99.90
37518;DHT22;23366;52.498;13.446;2023-06-19T02:58:50;19.00;99.90
37518;DHT22;23366;52.498;13.446;2023-06-19T03:01:15;19.00;99.90
37518;DHT22;23366;52.498;13.446;2023-06-19T03:03:41;19.00;99.90
37518;DHT22;23366;52.498;13.446;2023-06-19T03:06:07;19.00;99.90
37518;DHT22;23366;52.498;13.446;2023-06-19T03:08:34;19.00;99.90
37518;DHT22;23366;52.498;13.446;2023-06-19T03:11:00;19.00;99.90
37518;DHT22;23366;52.498;13.446;2023-06-19T03:13:25;18.90;99.90
37518;DHT22;23366;52.498;13.446;2023-06-19T03:15:50;18.90;99.90
37518;DHT22;23366;52.498;13.446;2023-06-19T03:18:16;18.90;99.90
37518;DHT22;23366;52.498;13.446;2023-06-19T03:20:41;18.90;99.90
37518;DHT22;23366;52.498;13.446;2023-06-19T03:23:07;18.90;99.90
37518;DHT22;23366;52.498;13.446;2023-06-19T03:25:32;18.90;99.90
37518;DHT22;23366;52.498;13.446;2023-06-19T03:28:01;18.90;99.90
37518;DHT22;23366;52.498;13.446;2023-06-19T03:30:28;18.90;99.90
37518;DHT22;23366;52.498;13.446;2023-06-19T03:32:53;18.90;99.90
37518;DHT22;23366;52.498;13.446;2023-06-19T03:35:19;19.00;99.90
37518;DHT22;23366;52.498;13.446;2023-06-19T03:37:44;19.00;99.90
37518;DHT22;23366;52.498;13.446;2023-06-19T03:40:10;19.10;99.90
37518;DHT22;23366;52.498;13.446;2023-06-19T03:42:41;19.10;99.90
37518;DHT22;23366;52.498;13.446;2023-06-19T03:45:07;19.20;99.90
37518;DHT22;23366;52.498;13.446;2023-06-19T03:47:33;19.20;99.90
37518;DHT22;23366;52.498;13.446;2023-06-19T03:49:58;19.30;99.90
37518;DHT22;23366;52.498;13.446;2023-06-19T03:52:24;19.30;99.90
37518;DHT22;23366;52.498;13.446;2023-06-19T03:54:49;19.40;99.90
37518;DHT22;23366;52.498;13.446;2023-06-19T03:57:15;19.40;99.90
37518;DHT22;23366;52.498;13.446;2023-06-19T03:59:40;19.50;99.90
37518;DHT22;23366;52.498;13.446;2023-06-19T04:02:06;19.50;99.90
37518;DHT22;23366;52.498;13.446;2023-06-19T04:04:31;19.50;99.90
37518;DHT22;23366;52.498;13.446;2023-06-19T04:06:57;19.50;99.90
37518;DHT22;23366;52.498;13.446;2023-06-19T04:09:24;19.50;99.90
37518;DHT22;23366;52.498;13.446;2023-06-19T04:11:50;19.50;99.90
37518;DHT22;23366;52.498;13.446;2023-06-19T04:14:15;19.50;99.90
37518;DHT22;23366;52.498;13.446;2023-06-19T04:16:41;19.50;99.90
37518;DHT22;23366;52.498;13.446;2023-06-19T04:19:06;19.50;99.90
37518;DHT22;23366;52.498;13.446;2023-06-19T04:21:31;19.40;99.90
37518;DHT22;23366;52.498;13.446;2023-06-19T04:23:57;19.40;99.90
37518;DHT22;23366;52.498;13.446;2023-06-19T04:26:22;19.40;99.90
37518;DHT22;23366;52.498;13.446;2023-06-19T04:28:49;19.40;99.90
37518;DHT22;23366;52.498;13.446;2023-06-19T04:31:15;19.50;99.90
37518;DHT22;23366;52.498;13.446;2023-06-19T04:33:43;19.50;99.90
37518;DHT22;23366;52.498;13.446;2023-06-19T04:36:09;19.50;99.90
37518;DHT22;23366;52.498;13.446;2023-06-19T04:38:35;19.50;99.90
37518;DHT22;23366;52.498;13.446;2023-06-19T04:41:00;19.50;99.90
37518;DHT22;23366;52.498;13.446;2023-06-19T04:43:26;19.50;99.90
37518;DHT22;23366;52.498;13.446;2023-06-19T04:45:51;19.50;99.90
37518;DHT22;23366;52.498;13.446;2023-06-19T04:48:17;19.50;99.90
37518;DHT22;23366;52.498;13.446;2023-06-19T04:50:42;19.50;99.90
37518;DHT22;23366;52.498;13.446;2023-06-19T04:53:08;19.50;99.90
37518;DHT22;23366;52.498;13.446;2023-06-19T04:55:33;19.50;99.90
37518;DHT22;23366;52.498;13.446;2023-06-19T04:57:59;19.50;99.90
37518;DHT22;23366;52.498;13.446;2023-06-19T05:00:24;19.50;99.90
37518;DHT22;23366;52.498;13.446;2023-06-19T05:02:50;19.50;99.90
37518;DHT22;23366;52.498;13.446;2023-06-19T05:05:16;19.50;99.90
37518;DHT22;23366;52.498;13.446;2023-06-19T05:07:42;19.50;99.90
37518;DHT22;23366;52.498;13.446;2023-06-19T05:10:08;19.50;99.90
37518;DHT22;23366;52.498;13.446;2023-06-19T05:12:36;19.50;99.90
37518;DHT22;23366;52.498;13.446;2023-06-19T05:15:02;19.60;99.90
37518;DHT22;23366;52.498;13.446;2023-06-19T05:17:28;19.60;99.90
37518;DHT22;23366;52.498;13.446;2023-06-19T05:19:54;19.60;99.90
37518;DHT22;23366;52.498;13.446;2023-06-19T05:22:19;19.60;99.90
37518;DHT22;23366;52.498;13.446;2023-06-19T05:24:47;19.60;99.90
37518;DHT22;23366;52.498;13.446;2023-06-19T05:27:12;19.60;99.90
37518;DHT22;23366;52.498;13.446;2023-06-19T05:29:38;19.70;99.90
37518;DHT22;23366;52.498;13.446;2023-06-19T05:32:03;19.70;99.90
37518;DHT22;23366;52.498;13.446;2023-06-19T05:34:29;19.70;99.90
37518;DHT22;23366;52.498;13.446;2023-06-19T05:36:55;19.80;99.90
37518;DHT22;23366;52.498;13.446;2023-06-19T05:39:20;19.80;99.90
37518;DHT22;23366;52.498;13.446;2023-06-19T05:41:45;19.80;99.90
37518;DHT22;23366;52.498;13.446;2023-06-19T05:44:11;19.90;99.90
37518;DHT22;23366;52.498;13.446;2023-06-19T05:46:41;19.90;99.90
37518;DHT22;23366;52.498;13.446;2023-06-19T05:49:07;19.90;99.90
37518;DHT22;23366;52.498;13.446;2023-06-19T05:51:32;19.90;99.90
37518;DHT22;23366;52.498;13.446;2023-06-19T05:53:58;19.90;99.90
37518;DHT22;23366;52.498;13.446;2023-06-19T05:56:31;19.90;99.90
37518;DHT22;23366;52.498;13.446;2023-06-19T05:58:58;19.90;99.90
37518;DHT22;23366;52.498;13.446;2023-06-19T06:01:24;19.90;99.90
37518;DHT22;23366;52.498;13.446;2023-06-19T06:03:49;20.00;99.90
37518;DHT22;23366;52.498;13.446;2023-06-19T06:06:15;20.00;99.90
37518;DHT22;23366;52.498;13.446;2023-06-19T06:08:40;20.10;99.90
37518;DHT22;23366;52.498;13.446;2023-06-19T06:11:06;20.10;99.90
37518;DHT22;23366;52.498;13.446;2023-06-19T06:13:31;20.10;99.90
37518;DHT22;23366;52.498;13.446;2023-06-19T06:15:57;20.10;99.90
37518;DHT22;23366;52.498;13.446;2023-06-19T06:18:22;20.20;99.90
37518;DHT22;23366;52.498;13.446;2023-06-19T06:20:48;20.20;99.90
37518;DHT22;23366;52.498;13.446;2023-06-19T06:23:13;20.20;99.90
37518;DHT22;23366;52.498;13.446;2023-06-19T06:25:39;20.20;99.90
37518;DHT22;23366;52.498;13.446;2023-06-19T06:28:04;20.20;99.90
37518;DHT22;23366;52.498;13.446;2023-06-19T06:30:30;20.20;99.90
37518;DHT22;23366;52.498;13.446;2023-06-19T06:32:56;20.30;99.90
37518;DHT22;23366;52.498;13.446;2023-06-19T06:35:21;20.30;99.90
37518;DHT22;23366;52.498;13.446;2023-06-19T06:37:46;20.30;99.90
37518;DHT22;23366;52.498;13.446;2023-06-19T06:40:14;20.40;99.90
37518;DHT22;23366;52.498;13.446;2023-06-19T06:42:40;20.40;99.90
37518;DHT22;23366;52.498;13.446;2023-06-19T06:45:06;20.50;99.90
37518;DHT22;23366;52.498;13.446;2023-06-19T06:47:33;20.50;99.90
37518;DHT22;23366;52.498;13.446;2023-06-19T06:49:58;20.50;99.90
37518;DHT22;23366;52.498;13.446;2023-06-19T06:52:24;20.50;99.90
37518;DHT22;23366;52.498;13.446;2023-06-19T06:54:49;20.60;99.90
37518;DHT22;23366;52.498;13.446;2023-06-19T06:57:16;20.70;99.90
37518;DHT22;23366;52.498;13.446;2023-06-19T06:59:41;20.70;99.90
37518;DHT22;23366;52.498;13.446;2023-06-19T07:02:07;20.80;99.90
37518;DHT22;23366;52.498;13.446;2023-06-19T07:04:32;20.90;99.90
37518;DHT22;23366;52.498;13.446;2023-06-19T07:06:58;21.00;99.90
37518;DHT22;23366;52.498;13.446;2023-06-19T07:09:23;21.10;99.90
37518;DHT22;23366;52.498;13.446;2023-06-19T07:11:49;21.20;99.90
37518;DHT22;23366;52.498;13.446;2023-06-19T07:14:15;21.30;99.90
37518;DHT22;23366;52.498;13.446;2023-06-19T07:16:46;21.40;99.90
37518;DHT22;23366;52.498;13.446;2023-06-19T07:19:12;21.60;99.90
37518;DHT22;23366;52.498;13.446;2023-06-19T07:21:38;21.70;99.90
37518;DHT22;23366;52.498;13.446;2023-06-19T07:24:04;21.80;99.90
37518;DHT22;23366;52.498;13.446;2023-06-19T07:26:30;22.00;99.90
37518;DHT22;23366;52.498;13.446;2023-06-19T07:28:56;22.00;99.90
37518;DHT22;23366;52.498;13.446;2023-06-19T07:31:21;22.10;99.90
37518;DHT22;23366;52.498;13.446;2023-06-19T07:33:47;22.10;99.90
37518;DHT22;23366;52.498;13.446;2023-06-19T07:36:12;22.20;99.90
37518;DHT22;23366;52.498;13.446;2023-06-19T07:38:40;22.30;99.90
37518;DHT22;23366;52.498;13.446;2023-06-19T07:41:05;22.40;99.90
37518;DHT22;23366;52.498;13.446;2023-06-19T07:43:32;22.50;99.90
37518;DHT22;23366;52.498;13.446;2023-06-19T07:45:58;22.50;99.90
37518;DHT22;23366;52.498;13.446;2023-06-19T07:48:24;22.60;99.90
37518;DHT22;23366;52.498;13.446;2023-06-19T07:50:50;22.70;99.90
37518;DHT22;23366;52.498;13.446;2023-06-19T07:53:15;22.90;99.90
37518;DHT22;23366;52.498;13.446;2023-06-19T07:55:41;23.00;99.90
37518;DHT22;23366;52.498;13.446;2023-06-19T07:58:07;23.10;99.90
37518;DHT22;23366;52.498;13.446;2023-06-19T08:00:32;23.20;99.90
37518;DHT22;23366;52.498;13.446;2023-06-19T08:02:58;23.20;99.90
37518;DHT22;23366;52.498;13.446;2023-06-19T08:05:23;23.40;99.90
37518;DHT22;23366;52.498;13.446;2023-06-19T08:07:49;23.40;99.90
37518;DHT22;23366;52.498;13.446;2023-06-19T08:10:14;23.50;99.90
37518;DHT22;23366;52.498;13.446;2023-06-19T08:12:41;23.60;99.90
37518;DHT22;23366;52.498;13.446;2023-06-19T08:15:08;23.70;99.90
37518;DHT22;23366;52.498;13.446;2023-06-19T08:17:33;23.60;99.90
37518;DHT22;23366;52.498;13.446;2023-06-19T08:20:00;23.70;99.90
37518;DHT22;23366;52.498;13.446;2023-06-19T08:22:25;23.70;99.90
37518;DHT22;23366;52.498;13.446;2023-06-19T08:24:50;23.70;99.90
37518;DHT22;23366;52.498;13.446;2023-06-19T08:27:16;23.70;99.90
37518;DHT22;23366;52.498;13.446;2023-06-19T08:29:41;23.80;99.90
37518;DHT22;23366;52.498;13.446;2023-06-19T08:32:08;23.90;99.90
37518;DHT22;23366;52.498;13.446;2023-06-19T08:34:34;24.00;99.90
37518;DHT22;23366;52.498;13.446;2023-06-19T08:37:03;24.00;99.90
37518;DHT22;23366;52.498;13.446;2023-06-19T08:39:29;24.00;99.90
37518;DHT22;23366;52.498;13.446;2023-06-19T08:41:55;24.10;99.90
37518;DHT22;23366;52.498;13.446;2023-06-19T08:44:20;24.00;99.90
37518;DHT22;23366;52.498;13.446;2023-06-19T08:46:46;23.90;99.90
37518;DHT22;23366;52.498;13.446;2023-06-19T08:49:12;23.80;99.90
37518;DHT22;23366;52.498;13.446;2023-06-19T08:51:39;23.80;99.90
37518;DHT22;23366;52.498;13.446;2023-06-19T08:54:06;23.80;99.90
37518;DHT22;23366;52.498;13.446;2023-06-19T08:56:33;23.80;99.90
37518;DHT22;23366;52.498;13.446;2023-06-19T08:59:13;23.80;99.90
37518;DHT22;23366;52.498;13.446;2023-06-19T09:01:39;23.80;99.90
37518;DHT22;23366;52.498;13.446;2023-06-19T09:04:10;23.80;99.90
37518;DHT22;23366;52.498;13.446;2023-06-19T09:06:44;23.80;99.90
37518;DHT22;23366;52.498;13.446;2023-06-19T09:09:13;23.80;99.90
37518;DHT22;23366;52.498;13.446;2023-06-19T09:11:39;23.80;99.90
37518;DHT22;23366;52.498;13.446;2023-06-19T09:14:09;23.80;99.90
37518;DHT22;23366;52.498;13.446;2023-06-19T09:16:40;24.00;99.90
37518;DHT22;23366;52.498;13.446;2023-06-19T09:19:06;24.20;99.90
37518;DHT22;23366;52.498;13.446;2023-06-19T09:21:31;24.30;99.90
37518;DHT22;23366;52.498;13.446;2023-06-19T09:24:07;24.30;99.90
37518;DHT22;23366;52.498;13.446;2023-06-19T09:26:34;24.50;99.90
37518;DHT22;23366;52.498;13.446;2023-06-19T09:29:16;24.50;99.90
37518;DHT22;23366;52.498;13.446;2023-06-19T09:31:43;24.70;99.90
37518;DHT22;23366;52.498;13.446;2023-06-19T09:34:09;24.80;99.90
37518;DHT22;23366;52.498;13.446;2023-06-19T09:36:35;24.90;99.90
37518;DHT22;23366;52.498;13.446;2023-06-19T09:39:02;24.80;99.90
37518;DHT22;23366;52.498;13.446;2023-06-19T09:41:29;24.80;99.40
37518;DHT22;23366;52.498;13.446;2023-06-19T09:43:56;24.80;99.60
37518;DHT22;23366;52.498;13.446;2023-06-19T09:46:26;24.80;99.70
37518;DHT22;23366;52.498;13.446;2023-06-19T09:48:55;24.70;99.80
37518;DHT22;23366;52.498;13.446;2023-06-19T09:51:29;24.70;99.90
37518;DHT22;23366;52.498;13.446;2023-06-19T09:53:57;24.70;99.90
37518;DHT22;23366;52.498;13.446;2023-06-19T09:56:24;24.80;99.90
37518;DHT22;23366;52.498;13.446;2023-06-19T09:58:53;24.90;99.90
37518;DHT22;23366;52.498;13.446;2023-06-19T10:01:20;25.00;99.90
37518;DHT22;23366;52.498;13.446;2023-06-19T10:03:46;25.10;99.90
37518;DHT22;23366;52.498;13.446;2023-06-19T10:06:16;25.10;99.80
37518;DHT22;23366;52.498;13.446;2023-06-19T10:08:43;25.20;99.90
37518;DHT22;23366;52.498;13.446;2023-06-19T10:11:10;25.20;99.60
37518;DHT22;23366;52.498;13.446;2023-06-19T10:13:41;25.20;99.70
37518;DHT22;23366;52.498;13.446;2023-06-19T10:16:07;25.00;99.70
37518;DHT22;23366;52.498;13.446;2023-06-19T10:18:44;24.90;99.90
37518;DHT22;23366;52.498;13.446;2023-06-19T10:21:18;24.90;99.90
37518;DHT22;23366;52.498;13.446;2023-06-19T10:23:56;24.90;99.90
37518;DHT22;23366;52.498;13.446;2023-06-19T10:26:33;24.90;99.90
37518;DHT22;23366;52.498;13.446;2023-06-19T10:28:58;24.90;99.80
37518;DHT22;23366;52.498;13.446;2023-06-19T10:31:24;25.00;99.70
37518;DHT22;23366;52.498;13.446;2023-06-19T10:33:50;24.90;99.70
37518;DHT22;23366;52.498;13.446;2023-06-19T10:36:16;25.10;99.60
37518;DHT22;23366;52.498;13.446;2023-06-19T10:38:42;25.30;99.50
37518;DHT22;23366;52.498;13.446;2023-06-19T10:41:19;25.40;99.70
37518;DHT22;23366;52.498;13.446;2023-06-19T10:44:06;25.30;99.70
37518;DHT22;23366;52.498;13.446;2023-06-19T10:46:35;25.20;99.60
37518;DHT22;23366;52.498;13.446;2023-06-19T10:49:02;25.10;99.40
37518;DHT22;23366;52.498;13.446;2023-06-19T10:51:30;24.90;98.80
37518;DHT22;23366;52.498;13.446;2023-06-19T10:53:57;24.90;99.30
37518;DHT22;23366;52.498;13.446;2023-06-19T10:56:23;24.90;99.70
37518;DHT22;23366;52.498;13.446;2023-06-19T10:58:56;24.80;99.90
37518;DHT22;23366;52.498;13.446;2023-06-19T11:01:22;24.90;99.90
37518;DHT22;23366;52.498;13.446;2023-06-19T11:03:50;25.00;99.40
37518;DHT22;23366;52.498;13.446;2023-06-19T11:06:20;25.30;99.20
37518;DHT22;23366;52.498;13.446;2023-06-19T11:08:51;25.80;98.80
37518;DHT22;23366;52.498;13.446;2023-06-19T11:11:17;26.10;97.70
37518;DHT22;23366;52.498;13.446;2023-06-19T11:13:43;26.10;96.40
37518;DHT22;23366;52.498;13.446;2023-06-19T11:16:08;26.10;96.40
37518;DHT22;23366;52.498;13.446;2023-06-19T11:18:35;26.20;95.90
37518;DHT22;23366;52.498;13.446;2023-06-19T11:21:01;26.10;96.10
37518;DHT22;23366;52.498;13.446;2023-06-19T11:23:28;26.10;96.30
37518;DHT22;23366;52.498;13.446;2023-06-19T11:25:54;26.40;95.70
37518;DHT22;23366;52.498;13.446;2023-06-19T11:28:27;26.60;96.00
37518;DHT22;23366;52.498;13.446;2023-06-19T11:31:00;26.40;95.20
37518;DHT22;23366;52.498;13.446;2023-06-19T11:33:26;26.40;95.40
37518;DHT22;23366;52.498;13.446;2023-06-19T11:35:53;26.40;95.20
37518;DHT22;23366;52.498;13.446;2023-06-19T11:38:21;26.40;94.70
37518;DHT22;23366;52.498;13.446;2023-06-19T11:40:47;26.40;95.00
37518;DHT22;23366;52.498;13.446;2023-06-19T11:43:27;26.60;94.70
37518;DHT22;23366;52.498;13.446;2023-06-19T11:45:53;26.50;94.70
37518;DHT22;23366;52.498;13.446;2023-06-19T11:48:26;26.70;94.80
37518;DHT22;23366;52.498;13.446;2023-06-19T11:50:52;27.00;94.40
37518;DHT22;23366;52.498;13.446;2023-06-19T11:53:22;27.10;93.60
37518;DHT22;23366;52.498;13.446;2023-06-19T11:55:48;27.20;92.50
37518;DHT22;23366;52.498;13.446;2023-06-19T11:58:14;27.20;92.00
37518;DHT22;23366;52.498;13.446;2023-06-19T12:00:43;27.40;91.90
37518;DHT22;23366;52.498;13.446;2023-06-19T12:03:09;27.60;92.30
37518;DHT22;23366;52.498;13.446;2023-06-19T12:05:38;27.80;92.30
37518;DHT22;23366;52.498;13.446;2023-06-19T12:08:03;28.00;92.10
37518;DHT22;23366;52.498;13.446;2023-06-19T12:10:30;28.20;91.10
37518;DHT22;23366;52.498;13.446;2023-06-19T12:12:55;28.20;88.10
37518;DHT22;23366;52.498;13.446;2023-06-19T12:15:21;28.00;87.60
37518;DHT22;23366;52.498;13.446;2023-06-19T12:17:47;27.80;88.10
37518;DHT22;23366;52.498;13.446;2023-06-19T12:20:13;27.90;87.90
37518;DHT22;23366;52.498;13.446;2023-06-19T12:22:41;27.60;87.10
37518;DHT22;23366;52.498;13.446;2023-06-19T12:25:08;27.50;86.90
37518;DHT22;23366;52.498;13.446;2023-06-19T12:27:33;27.60;86.40
37518;DHT22;23366;52.498;13.446;2023-06-19T12:29:59;27.50;86.30
37518;DHT22;23366;52.498;13.446;2023-06-19T12:32:24;27.60;86.10
37518;DHT22;23366;52.498;13.446;2023-06-19T12:34:50;27.70;85.90
37518;DHT22;23366;52.498;13.446;2023-06-19T12:37:20;27.90;85.70
37518;DHT22;23366;52.498;13.446;2023-06-19T12:39:47;28.00;84.60
37518;DHT22;23366;52.498;13.446;2023-06-19T12:42:12;27.60;84.60
37518;DHT22;23366;52.498;13.446;2023-06-19T12:44:39;27.50;85.40
37518;DHT22;23366;52.498;13.446;2023-06-19T12:47:05;27.50;85.80
37518;DHT22;23366;52.498;13.446;2023-06-19T12:49:32;27.30;85.70
37518;DHT22;23366;52.498;13.446;2023-06-19T12:51:57;27.20;86.00
37518;DHT22;23366;52.498;13.446;2023-06-19T12:54:23;27.10;86.20
37518;DHT22;23366;52.498;13.446;2023-06-19T12:56:49;27.10;86.20
37518;DHT22;23366;52.498;13.446;2023-06-19T12:59:15;27.00;86.20
37518;DHT22;23366;52.498;13.446;2023-06-19T13:01:42;27.00;86.50
37518;DHT22;23366;52.498;13.446;2023-06-19T13:04:07;26.90;87.30
37518;DHT22;23366;52.498;13.446;2023-06-19T13:06:33;26.90;88.30
37518;DHT22;23366;52.498;13.446;2023-06-19T13:08:59;26.90;88.60
37518;DHT22;23366;52.498;13.446;2023-06-19T13:11:25;26.90;88.70
37518;DHT22;23366;52.498;13.446;2023-06-19T13:13:50;26.90;88.40
37518;DHT22;23366;52.498;13.446;2023-06-19T13:16:16;26.90;87.30
37518;DHT22;23366;52.498;13.446;2023-06-19T13:18:43;26.90;86.40
37518;DHT22;23366;52.498;13.446;2023-06-19T13:21:09;27.00;85.00
37518;DHT22;23366;52.498;13.446;2023-06-19T13:23:34;27.10;83.00
37518;DHT22;23366;52.498;13.446;2023-06-19T13:26:00;27.30;82.00
37518;DHT22;23366;52.498;13.446;2023-06-19T13:28:26;27.30;81.50
37518;DHT22;23366;52.498;13.446;2023-06-19T13:30:51;27.40;82.00
37518;DHT22;23366;52.498;13.446;2023-06-19T13:33:17;27.40;82.10
37518;DHT22;23366;52.498;13.446;2023-06-19T13:35:43;27.30;82.80
37518;DHT22;23366;52.498;13.446;2023-06-19T13:38:08;27.30;83.70
37518;DHT22;23366;52.498;13.446;2023-06-19T13:40:35;27.10;84.60
37518;DHT22;23366;52.498;13.446;2023-06-19T13:43:00;27.00;84.20
37518;DHT22;23366;52.498;13.446;2023-06-19T13:45:28;26.90;84.90
37518;DHT22;23366;52.498;13.446;2023-06-19T13:47:53;26.90;85.40
37518;DHT22;23366;52.498;13.446;2023-06-19T13:50:18;27.00;85.50
37518;DHT22;23366;52.498;13.446;2023-06-19T13:52:45;27.10;84.30
37518;DHT22;23366;52.498;13.446;2023-06-19T13:55:12;27.10;84.60
37518;DHT22;23366;52.498;13.446;2023-06-19T13:57:40;27.20;83.40
37518;DHT22;23366;52.498;13.446;2023-06-19T14:00:07;27.30;82.90
37518;DHT22;23366;52.498;13.446;2023-06-19T14:02:32;27.30;83.70
37518;DHT22;23366;52.498;13.446;2023-06-19T14:04:58;27.10;84.60
37518;DHT22;23366;52.498;13.446;2023-06-19T14:07:25;27.10;84.60
37518;DHT22;23366;52.498;13.446;2023-06-19T14:09:51;27.10;85.00
37518;DHT22;23366;52.498;13.446;2023-06-19T14:12:18;27.00;84.30
37518;DHT22;23366;52.498;13.446;2023-06-19T14:14:46;27.10;83.70
37518;DHT22;23366;52.498;13.446;2023-06-19T14:17:12;27.10;83.20
37518;DHT22;23366;52.498;13.446;2023-06-19T14:19:37;27.20;83.70
37518;DHT22;23366;52.498;13.446;2023-06-19T14:22:03;27.20;84.00
37518;DHT22;23366;52.498;13.446;2023-06-19T14:24:28;27.30;84.50
37518;DHT22;23366;52.498;13.446;2023-06-19T14:26:54;27.40;84.60
37518;DHT22;23366;52.498;13.446;2023-06-19T14:29:19;27.40;84.00
37518;DHT22;23366;52.498;13.446;2023-06-19T14:31:46;27.30;84.80
37518;DHT22;23366;52.498;13.446;2023-06-19T14:34:11;27.30;84.90
37518;DHT22;23366;52.498;13.446;2023-06-19T14:36:38;27.30;84.70
37518;DHT22;23366;52.498;13.446;2023-06-19T14:39:04;27.40;85.00
37518;DHT22;23366;52.498;13.446;2023-06-19T14:41:30;27.50;85.00
37518;DHT22;23366;52.498;13.446;2023-06-19T14:43:55;27.60;84.60
37518;DHT22;23366;52.498;13.446;2023-06-19T14:46:21;27.70;84.70
37518;DHT22;23366;52.498;13.446;2023-06-19T14:48:46;27.80;84.30
37518;DHT22;23366;52.498;13.446;2023-06-19T14:51:12;27.70;84.10
37518;DHT22;23366;52.498;13.446;2023-06-19T14:53:37;27.80;85.10
37518;DHT22;23366;52.498;13.446;2023-06-19T14:56:03;27.90;84.20
37518;DHT22;23366;52.498;13.446;2023-06-19T14:58:29;28.00;84.30
37518;DHT22;23366;52.498;13.446;2023-06-19T15:00:54;28.10;83.50
37518;DHT22;23366;52.498;13.446;2023-06-19T15:03:20;28.00;82.70
37518;DHT22;23366;52.498;13.446;2023-06-19T15:05:45;28.00;82.90
37518;DHT22;23366;52.498;13.446;2023-06-19T15:08:11;27.90;83.00
37518;DHT22;23366;52.498;13.446;2023-06-19T15:10:37;28.00;83.40
37518;DHT22;23366;52.498;13.446;2023-06-19T15:13:03;27.90;82.60